createdAt,value
2023-03-04T00:02:25.463Z,11.77
2023-03-04T00:04:52.234Z,12.82
2023-03-04T00:07:18.978Z,11.93
2023-03-04T00:09:46.247Z,11.88
2023-03-04T00:12:13.303Z,11.18
2023-03-04T00:14:39.952Z,11.10
2023-03-04T00:17:07.083Z,12.13
2023-03-04T00:19:35.042Z,12.20
2023-03-04T00:22:04.618Z,10.95
2023-03-04T00:24:31.860Z,10.57
2023-03-04T00:26:58.411Z,11.65
2023-03-04T00:29:25.127Z,11.07
2023-03-04T00:31:51.667Z,10.55
2023-03-04T00:34:18.260Z,11.32
2023-03-04T00:36:44.810Z,10.60
2023-03-04T00:39:13.531Z,10.70
2023-03-04T00:41:40.128Z,10.40
2023-03-04T00:44:06.908Z,10.95
2023-03-04T00:46:33.410Z,10.90
2023-03-04T00:48:59.969Z,11.18
2023-03-04T00:51:26.742Z,11.75
2023-03-04T00:53:54.199Z,10.27
2023-03-04T00:56:20.848Z,10.98
2023-03-04T00:58:47.314Z,11.05
2023-03-04T01:01:14.082Z,11.63
2023-03-04T01:03:42.417Z,11.18
2023-03-04T01:06:09.119Z,11.23
2023-03-04T01:08:36.240Z,11.52
2023-03-04T01:11:02.964Z,11.13
2023-03-04T01:13:29.680Z,10.32
2023-03-04T01:15:57.574Z,11.70
2023-03-04T01:18:24.610Z,10.68
2023-03-04T01:20:51.129Z,9.68
2023-03-04T01:23:17.673Z,9.95
2023-03-04T01:25:44.210Z,11.85
2023-03-04T01:28:11.432Z,12.02
2023-03-04T01:30:38.018Z,10.82
2023-03-04T01:33:04.610Z,11.27
2023-03-04T01:35:31.153Z,10.13
2023-03-04T01:37:57.631Z,10.70
2023-03-04T01:40:27.322Z,12.02
2023-03-04T01:42:53.829Z,11.43
2023-03-04T01:45:21.138Z,10.00
2023-03-04T01:47:49.474Z,12.48
2023-03-04T01:50:33.749Z,10.98
2023-03-04T01:53:01.093Z,11.60
2023-03-04T01:55:29.626Z,10.38
2023-03-04T01:57:57.513Z,10.75
2023-03-04T02:00:27.159Z,10.00
2023-03-04T02:02:57.428Z,10.60
2023-03-04T02:05:24.738Z,9.85
2023-03-04T02:07:52.512Z,12.32
2023-03-04T02:10:19.221Z,11.70
2023-03-04T02:12:46.086Z,9.98
2023-03-04T02:15:13.469Z,10.25
2023-03-04T02:17:40.183Z,10.48
2023-03-04T02:20:17.974Z,11.55
2023-03-04T02:22:54.344Z,10.68
2023-03-04T02:25:31.753Z,9.05
2023-03-04T02:27:58.380Z,12.00
2023-03-04T02:30:28.268Z,10.65
2023-03-04T02:32:54.836Z,10.95
2023-03-04T02:35:21.635Z,10.93
2023-03-04T02:37:48.507Z,11.70
2023-03-04T02:40:21.137Z,10.82
2023-03-04T02:42:47.715Z,10.82
2023-03-04T02:45:50.530Z,11.85
2023-03-04T02:48:20.316Z,10.73
2023-03-04T02:50:52.713Z,11.27
2023-03-04T02:53:20.831Z,10.43
2023-03-04T02:55:47.982Z,11.70
2023-03-04T02:58:18.622Z,10.83
2023-03-04T03:00:45.401Z,10.30
2023-03-04T03:03:11.933Z,12.10
2023-03-04T03:05:41.137Z,11.83
2023-03-04T03:08:07.976Z,10.00
2023-03-04T03:10:36.679Z,11.35
2023-03-04T03:13:03.250Z,10.40
2023-03-04T03:15:29.925Z,10.40
2023-03-04T03:17:57.210Z,10.83
2023-03-04T03:20:23.727Z,11.80
2023-03-04T03:22:50.292Z,10.60
2023-03-04T03:25:17.431Z,10.00
2023-03-04T03:27:43.975Z,10.00
2023-03-04T03:30:12.828Z,11.27
2023-03-04T03:32:39.309Z,10.73
2023-03-04T03:35:06.019Z,10.90
2023-03-04T03:37:32.733Z,10.60
2023-03-04T03:39:59.393Z,11.93
2023-03-04T03:42:26.078Z,10.67
2023-03-04T03:44:52.551Z,9.47
2023-03-04T03:47:19.180Z,10.07
2023-03-04T03:49:45.631Z,10.53
2023-03-04T03:52:14.006Z,9.50
2023-03-04T03:54:40.473Z,10.60
2023-03-04T03:57:06.922Z,10.77
2023-03-04T03:59:33.372Z,9.63
2023-03-04T04:01:59.990Z,9.27
2023-03-04T04:04:27.180Z,10.07
2023-03-04T04:06:53.689Z,9.10
2023-03-04T04:09:20.361Z,8.87
2023-03-04T04:11:46.820Z,9.37
2023-03-04T04:14:14.513Z,10.30
2023-03-04T04:16:41.161Z,9.63
2023-03-04T04:19:07.761Z,10.97
2023-03-04T04:21:34.238Z,9.30
2023-03-04T04:24:00.689Z,9.53
2023-03-04T04:26:27.224Z,8.77
2023-03-04T04:28:53.699Z,9.40
2023-03-04T04:31:20.283Z,11.00
2023-03-04T04:33:46.733Z,10.33
2023-03-04T04:36:15.566Z,10.17
2023-03-04T04:38:42.129Z,10.60
2023-03-04T04:41:25.252Z,11.53
2023-03-04T04:43:54.183Z,10.73
2023-03-04T04:46:22.460Z,9.60
2023-03-04T04:48:49.400Z,13.37
2023-03-04T04:51:16.257Z,10.53
2023-03-04T04:53:43.108Z,10.63
2023-03-04T04:56:13.780Z,10.90
2023-03-04T04:58:40.401Z,13.00
2023-03-04T05:01:07.347Z,13.30
2023-03-04T05:03:35.223Z,12.23
2023-03-04T05:06:01.750Z,13.13
2023-03-04T05:08:28.552Z,13.00
2023-03-04T05:10:55.180Z,13.20
2023-03-04T05:13:21.959Z,10.73
2023-03-04T05:15:50.778Z,12.27
2023-03-04T05:18:17.354Z,10.63
2023-03-04T05:20:44.957Z,10.57
2023-03-04T05:23:11.368Z,9.97
2023-03-04T05:25:37.778Z,12.90
2023-03-04T05:28:04.983Z,12.47
2023-03-04T05:30:31.382Z,12.20
2023-03-04T05:32:57.837Z,12.53
2023-03-04T05:35:24.302Z,12.37
2023-03-04T05:37:50.807Z,12.77
2023-03-04T05:40:18.080Z,10.77
2023-03-04T05:42:45.418Z,11.70
2023-03-04T05:45:12.006Z,10.00
2023-03-04T05:47:38.421Z,11.17
2023-03-04T05:50:05.184Z,11.60
2023-03-04T05:52:31.592Z,11.53
2023-03-04T05:54:58.054Z,12.07
2023-03-04T05:57:24.601Z,11.73
2023-03-04T05:59:51.070Z,12.40
2023-03-04T06:02:17.649Z,10.30
2023-03-04T06:04:44.084Z,9.90
2023-03-04T06:07:10.616Z,10.73
2023-03-04T06:09:37.423Z,11.07
2023-03-04T06:12:04.016Z,12.77
2023-03-04T06:14:30.735Z,10.83
2023-03-04T06:16:57.256Z,10.73
2023-03-04T06:19:23.823Z,11.57
2023-03-04T06:21:50.334Z,11.17
2023-03-04T06:24:16.919Z,10.07
2023-03-04T06:26:43.438Z,11.00
2023-03-04T06:29:10.289Z,10.57
2023-03-04T06:31:36.892Z,9.97
2023-03-04T06:34:04.165Z,10.80
2023-03-04T06:36:34.678Z,10.25
2023-03-04T06:39:05.503Z,9.20
2023-03-04T06:41:32.229Z,11.50
2023-03-04T06:44:02.357Z,9.63
2023-03-04T06:46:30.463Z,9.67
2023-03-04T06:48:57.228Z,11.63
2023-03-04T06:51:23.717Z,9.83
2023-03-04T06:53:50.600Z,10.50
2023-03-04T06:56:17.337Z,9.90
2023-03-04T06:58:44.607Z,10.80
2023-03-04T07:01:12.544Z,11.10
2023-03-04T07:03:39.112Z,10.30
2023-03-04T07:06:05.808Z,10.43
2023-03-04T07:08:32.549Z,10.65
2023-03-04T07:10:59.006Z,12.05
2023-03-04T07:13:26.548Z,10.00
2023-03-04T07:15:53.496Z,10.10
2023-03-04T07:18:20.223Z,10.87
2023-03-04T07:20:46.696Z,12.35
2023-03-04T07:23:13.184Z,10.63
2023-03-04T07:25:44.918Z,9.32
2023-03-04T07:28:11.420Z,8.77
2023-03-04T07:30:38.012Z,11.98
2023-03-04T07:33:04.498Z,10.10
2023-03-04T07:35:31.047Z,10.00
2023-03-04T07:37:57.568Z,11.13
2023-03-04T07:40:24.326Z,11.93
2023-03-04T07:42:51.850Z,10.15
2023-03-04T07:45:18.719Z,10.85
2023-03-04T07:47:45.937Z,11.30
2023-03-04T07:50:15.851Z,11.18
2023-03-04T07:52:48.080Z,10.88
2023-03-04T07:55:15.932Z,10.98
2023-03-04T07:57:44.453Z,11.00
2023-03-04T08:00:13.605Z,11.18
2023-03-04T08:02:40.535Z,11.27
2023-03-04T08:05:09.493Z,11.43
2023-03-04T08:07:36.444Z,10.68
2023-03-04T08:10:04.432Z,12.52
2023-03-04T08:12:30.972Z,11.55
2023-03-04T08:14:57.492Z,13.13
2023-03-04T08:17:29.768Z,12.30
2023-03-04T08:19:56.356Z,12.50
2023-03-04T08:22:27.869Z,10.70
2023-03-04T08:24:54.634Z,11.40
2023-03-04T08:27:21.111Z,11.05
2023-03-04T08:29:47.560Z,12.93
2023-03-04T08:32:14.187Z,10.73
2023-03-04T08:34:45.949Z,10.70
2023-03-04T08:37:12.466Z,11.45
2023-03-04T08:39:39.435Z,12.73
2023-03-04T08:42:06.989Z,11.90
2023-03-04T08:44:33.445Z,10.90
2023-03-04T08:46:59.930Z,12.48
2023-03-04T08:49:27.411Z,13.55
2023-03-04T08:51:55.957Z,12.10
2023-03-04T08:54:23.474Z,12.80
2023-03-04T08:56:49.955Z,11.82
2023-03-04T08:59:16.423Z,12.02
2023-03-04T09:01:42.950Z,12.85
2023-03-04T09:04:09.546Z,11.95
2023-03-04T09:06:36.127Z,11.43
2023-03-04T09:09:04.071Z,11.95
2023-03-04T09:11:31.309Z,11.48
2023-03-04T09:13:57.908Z,12.13
2023-03-04T09:16:24.518Z,12.43
2023-03-04T09:18:51.008Z,12.15
2023-03-04T09:21:18.678Z,13.02
2023-03-04T09:23:54.262Z,11.57
2023-03-04T09:26:24.929Z,12.50
2023-03-04T09:28:57.280Z,10.98
2023-03-04T09:31:24.942Z,12.15
2023-03-04T09:33:52.913Z,12.00
2023-03-04T09:36:19.702Z,11.93
2023-03-04T09:38:48.461Z,11.60
2023-03-04T09:41:40.167Z,11.88
2023-03-04T09:44:24.507Z,12.23
2023-03-04T09:46:58.965Z,10.68
2023-03-04T09:49:26.532Z,11.32
2023-03-04T09:51:58.304Z,11.30
2023-03-04T09:54:51.286Z,11.18
2023-03-04T09:57:30.063Z,11.60
2023-03-04T10:00:13.778Z,10.35
2023-03-04T10:02:41.329Z,11.05
2023-03-04T10:05:13.278Z,10.10
2023-03-04T10:10:33.880Z,10.98
2023-03-04T10:13:03.025Z,9.55
2023-03-04T10:30:37.637Z,11.60
2023-03-04T10:33:12.285Z,9.50
2023-03-04T10:35:38.874Z,9.85
2023-03-04T10:38:06.920Z,9.85
2023-03-04T10:40:39.198Z,10.30
2023-03-04T10:43:21.591Z,9.23
2023-03-04T10:45:58.689Z,10.50
2023-03-04T10:48:28.946Z,11.02
2023-03-04T10:51:12.451Z,10.30
2023-03-04T10:53:43.111Z,9.48
2023-03-04T10:56:38.969Z,10.95
2023-03-04T10:59:36.482Z,9.57
2023-03-04T11:02:17.505Z,10.73
2023-03-04T11:05:06.639Z,10.63
2023-03-04T11:07:53.983Z,10.68
2023-03-04T11:10:40.866Z,9.65
2023-03-04T11:13:13.382Z,12.18
2023-03-04T11:16:05.132Z,9.77
2023-03-04T11:18:47.065Z,11.25
2023-03-04T11:21:43.228Z,10.27
2023-03-04T11:24:29.389Z,9.63
2023-03-04T11:27:17.618Z,11.02
2023-03-04T11:29:56.720Z,10.73
2023-03-04T11:32:27.912Z,11.55
2023-03-04T11:35:15.833Z,10.98
2023-03-04T11:37:59.769Z,11.07
2023-03-04T11:40:39.012Z,9.95
2023-03-04T11:43:21.705Z,10.73
2023-03-04T11:46:00.684Z,11.23
2023-03-04T11:48:45.153Z,10.80
2023-03-04T11:51:28.909Z,10.52
2023-03-04T11:54:17.224Z,10.35
2023-03-04T11:56:45.740Z,10.50
2023-03-04T11:59:30.836Z,10.63
2023-03-04T12:02:19.445Z,11.27
2023-03-04T12:05:20.280Z,9.60
2023-03-04T12:08:13.499Z,11.50
2023-03-04T12:10:50.929Z,11.85
2023-03-04T12:13:45.340Z,10.25
2023-03-04T12:16:40.634Z,11.00
2023-03-04T12:19:21.237Z,9.95
2023-03-04T12:22:27.292Z,10.13
2023-03-04T12:25:06.457Z,9.30
2023-03-04T12:27:54.059Z,10.73
2023-03-04T12:30:51.726Z,9.05
2023-03-04T12:33:39.976Z,9.95
2023-03-04T12:36:26.453Z,9.63
2023-03-04T12:39:01.566Z,10.13
2023-03-04T12:41:39.682Z,10.52
2023-03-04T12:44:19.347Z,8.57
2023-03-04T12:47:07.019Z,8.80
2023-03-04T12:49:58.237Z,8.75
2023-03-04T12:52:46.229Z,8.73
2023-03-04T12:55:18.277Z,8.43
2023-03-04T12:57:45.633Z,9.18
2023-03-04T13:00:32.098Z,8.13
2023-03-04T13:03:33.723Z,9.45
2023-03-04T13:06:15.230Z,8.52
2023-03-04T13:09:05.583Z,8.00
2023-03-04T13:11:39.705Z,8.98
2023-03-04T13:14:22.277Z,9.18
2023-03-04T13:16:54.212Z,7.35
2023-03-04T13:22:26.830Z,7.90
2023-03-04T13:24:53.721Z,7.55
2023-03-04T13:27:48.755Z,8.02
2023-03-04T13:30:34.463Z,9.00
2023-03-04T13:33:16.346Z,7.65
2023-03-04T13:35:51.793Z,8.45
2023-03-04T13:38:28.350Z,8.05
2023-03-04T13:41:17.848Z,7.93
2023-03-04T13:43:45.416Z,7.30
2023-03-04T13:46:21.119Z,6.85
2023-03-04T13:49:00.348Z,8.20
2023-03-04T13:51:30.018Z,7.22
2023-03-04T13:53:59.742Z,7.40
2023-03-04T13:56:59.236Z,7.95
2023-03-04T13:59:35.104Z,8.23
2023-03-04T14:02:14.924Z,7.43
2023-03-04T14:05:03.409Z,7.75
2023-03-04T14:07:32.435Z,8.18
2023-03-04T14:09:59.049Z,7.78
2023-03-04T14:12:27.727Z,7.95
2023-03-04T14:14:57.537Z,8.65
2023-03-04T14:17:31.194Z,8.05
2023-03-04T14:19:57.824Z,8.93
2023-03-04T14:22:39.285Z,8.18
2023-03-04T14:25:22.917Z,7.72
2023-03-04T14:27:50.193Z,8.20
2023-03-04T14:30:41.405Z,7.47
2023-03-04T14:33:15.888Z,7.95
2023-03-04T14:35:48.109Z,8.00
2023-03-04T14:38:34.902Z,7.65
2023-03-04T14:41:10.242Z,8.13
2023-03-04T14:43:44.781Z,10.15
2023-03-04T14:46:15.087Z,8.45
2023-03-04T14:48:47.557Z,7.50
2023-03-04T14:51:41.682Z,7.88
2023-03-04T14:54:26.766Z,8.35
2023-03-04T14:56:53.228Z,9.18
2023-03-04T14:59:29.185Z,9.60
2023-03-04T15:02:15.042Z,8.57
2023-03-04T15:04:41.944Z,8.75
2023-03-04T15:07:16.473Z,10.82
2023-03-04T15:09:49.744Z,9.05
2023-03-04T15:12:24.537Z,10.23
2023-03-04T15:14:56.764Z,9.38
2023-03-04T15:17:26.368Z,8.80
2023-03-04T15:20:01.584Z,9.93
2023-03-04T15:22:28.107Z,10.00
2023-03-04T15:24:54.534Z,9.35
2023-03-04T15:27:24.381Z,11.88
2023-03-04T15:29:56.049Z,11.45
2023-03-04T15:32:27.164Z,10.13
2023-03-04T15:34:53.720Z,9.48
2023-03-04T15:37:27.104Z,9.07
2023-03-04T15:39:56.852Z,9.63
2023-03-04T15:42:23.866Z,9.10
2023-03-04T15:44:50.572Z,9.98
2023-03-04T15:47:17.354Z,9.35
2023-03-04T15:49:47.425Z,10.45
2023-03-04T15:52:17.741Z,10.00
2023-03-04T15:54:44.900Z,9.77
2023-03-04T15:57:21.512Z,9.10
2023-03-04T15:59:48.005Z,10.38
2023-03-04T16:02:24.684Z,9.98
2023-03-04T16:04:51.149Z,9.48
2023-03-04T16:07:24.476Z,8.75
2023-03-04T16:09:59.598Z,11.00
2023-03-04T16:12:27.664Z,10.27
2023-03-04T16:14:54.335Z,9.85
2023-03-04T16:17:20.865Z,10.85
2023-03-04T16:19:47.563Z,10.00
2023-03-04T16:22:24.469Z,11.27
2023-03-04T16:24:52.144Z,10.55
2023-03-04T16:27:22.253Z,11.68
2023-03-04T16:29:48.659Z,10.88
2023-03-04T16:32:15.179Z,10.40
2023-03-04T16:34:41.693Z,8.93
2023-03-04T16:37:15.824Z,9.68
2023-03-04T16:39:46.094Z,8.98
2023-03-04T16:42:16.202Z,9.68
2023-03-04T16:44:50.219Z,9.30
2023-03-04T16:47:16.890Z,8.88
2023-03-04T16:49:43.372Z,8.85
2023-03-04T16:52:27.453Z,10.32
2023-03-04T16:54:53.874Z,9.98
2023-03-04T16:57:20.313Z,11.38
2023-03-04T16:59:47.604Z,9.75
2023-03-04T17:02:19.784Z,8.60
2023-03-04T17:04:48.464Z,9.75
2023-03-04T17:07:15.401Z,9.45
2023-03-04T17:09:42.454Z,10.25
2023-03-04T17:12:11.893Z,10.95
2023-03-04T17:14:39.336Z,12.55
2023-03-04T17:17:06.892Z,14.18
2023-03-04T17:19:33.640Z,12.90
2023-03-04T17:22:01.418Z,13.45
2023-03-04T17:24:28.217Z,11.88
2023-03-04T17:26:54.802Z,12.40
2023-03-04T17:29:21.302Z,12.35
2023-03-04T17:31:48.018Z,11.38
2023-03-04T17:34:14.714Z,10.85
2023-03-04T17:36:42.501Z,13.77
2023-03-04T17:39:09.131Z,15.65
2023-03-04T17:41:36.930Z,21.90
2023-03-04T17:44:03.748Z,14.20
2023-03-04T17:46:30.236Z,13.63
2023-03-04T17:49:01.865Z,17.20
2023-03-04T17:51:33.539Z,14.95
2023-03-04T17:54:01.330Z,11.23
2023-03-04T17:56:31.423Z,11.13
2023-03-04T17:59:00.491Z,11.07
2023-03-04T18:01:27.427Z,11.50
2023-03-04T18:03:55.308Z,11.68
2023-03-04T18:06:25.328Z,10.75
2023-03-04T18:08:52.961Z,10.30
2023-03-04T18:11:23.397Z,11.18
2023-03-04T18:13:50.008Z,12.70
2023-03-04T18:16:23.053Z,11.95
2023-03-04T18:18:50.890Z,11.15
2023-03-04T18:21:18.484Z,12.75
2023-03-04T18:23:46.941Z,14.82
2023-03-04T18:26:13.624Z,15.30
2023-03-04T18:28:40.186Z,18.67
2023-03-04T18:31:07.120Z,19.25
2023-03-04T18:33:34.325Z,19.75
2023-03-04T18:36:03.598Z,12.27
2023-03-04T18:38:31.245Z,13.43
2023-03-04T18:41:04.403Z,11.30
2023-03-04T18:43:36.181Z,13.30
2023-03-04T18:46:04.192Z,13.30
2023-03-04T18:48:36.634Z,12.77
2023-03-04T18:51:07.644Z,14.00
2023-03-04T18:53:35.083Z,11.80
2023-03-04T18:56:07.963Z,11.07
2023-03-04T18:58:38.755Z,11.40
2023-03-04T19:01:07.721Z,11.23
2023-03-04T19:03:37.585Z,10.82
2023-03-04T19:06:05.822Z,14.00
2023-03-04T19:08:34.908Z,12.43
2023-03-04T19:11:01.591Z,12.80
2023-03-04T19:13:30.525Z,11.63
2023-03-04T19:15:57.317Z,10.30
2023-03-04T19:18:23.912Z,10.90
2023-03-04T19:21:00.722Z,13.68
2023-03-04T19:23:27.566Z,12.23
2023-03-04T19:25:54.008Z,12.93
2023-03-04T19:28:20.537Z,11.95
2023-03-04T19:30:47.205Z,12.20
2023-03-04T19:33:14.753Z,12.88
2023-03-04T19:35:43.408Z,18.75
2023-03-04T19:38:09.956Z,15.20
2023-03-04T19:40:46.726Z,12.27
2023-03-04T19:43:15.062Z,13.05
2023-03-04T19:45:43.699Z,13.93
2023-03-04T19:48:10.207Z,17.02
2023-03-04T19:50:36.621Z,14.77
2023-03-04T19:53:03.099Z,12.30
2023-03-04T19:55:29.561Z,12.80
2023-03-04T19:57:55.984Z,14.60
2023-03-04T20:00:24.078Z,12.60
2023-03-04T20:02:51.101Z,13.85
2023-03-04T20:05:20.270Z,11.18
2023-03-04T20:07:46.745Z,11.07
2023-03-04T20:10:18.824Z,14.85
2023-03-04T20:12:45.545Z,16.85
2023-03-04T20:15:12.055Z,11.13
2023-03-04T20:17:38.680Z,14.90
2023-03-04T20:20:05.720Z,13.52
2023-03-04T20:22:32.397Z,13.40
2023-03-04T20:24:58.961Z,14.02
2023-03-04T20:27:26.527Z,12.75
2023-03-04T20:29:53.565Z,13.80
2023-03-04T20:32:20.088Z,15.57
2023-03-04T20:34:47.952Z,12.40
2023-03-04T20:37:15.984Z,11.85
2023-03-04T20:39:42.412Z,11.35
2023-03-04T20:42:09.387Z,11.27
2023-03-04T20:44:36.034Z,11.88
2023-03-04T20:47:02.566Z,12.48
2023-03-04T20:49:29.806Z,12.23
2023-03-04T20:52:03.033Z,12.15
2023-03-04T20:54:30.849Z,10.70
2023-03-04T20:56:57.527Z,13.00
2023-03-04T20:59:24.406Z,15.00
2023-03-04T21:01:52.563Z,16.13
2023-03-04T21:04:19.852Z,13.57
2023-03-04T21:06:48.391Z,15.07
2023-03-04T21:09:17.943Z,12.32
2023-03-04T21:11:45.143Z,12.40
2023-03-04T21:14:22.211Z,11.80
2023-03-04T21:16:51.293Z,11.98
2023-03-04T21:19:25.213Z,11.30
2023-03-04T21:21:52.288Z,11.07
2023-03-04T21:24:22.053Z,10.73
2023-03-04T21:26:49.010Z,10.05
2023-03-04T21:29:18.048Z,10.13
2023-03-04T21:31:52.197Z,10.55
2023-03-04T21:34:30.501Z,10.30
2023-03-04T21:36:57.037Z,11.27
2023-03-04T21:39:24.846Z,11.90
2023-03-04T21:41:52.686Z,12.23
2023-03-04T21:44:33.334Z,12.10
2023-03-04T21:47:01.888Z,10.98
2023-03-04T21:49:28.629Z,11.13
2023-03-04T21:51:55.289Z,11.48
2023-03-04T21:54:22.064Z,15.23
2023-03-04T21:56:50.179Z,17.17
2023-03-04T21:59:19.645Z,17.50
2023-03-04T22:01:46.277Z,18.58
2023-03-04T22:04:13.249Z,14.77
2023-03-04T22:06:40.876Z,14.18
2023-03-04T22:09:07.824Z,12.52
2023-03-04T22:11:34.591Z,13.30
2023-03-04T22:14:02.706Z,11.77
2023-03-04T22:16:30.254Z,10.43
2023-03-04T22:18:57.892Z,10.68
2023-03-04T22:21:24.472Z,10.10
2023-03-04T22:23:51.059Z,9.93
2023-03-04T22:26:23.222Z,11.50
2023-03-04T22:28:49.635Z,11.00
2023-03-04T22:31:26.298Z,10.57
2023-03-04T22:33:52.761Z,10.20
2023-03-04T22:36:19.247Z,8.82
2023-03-04T22:38:46.780Z,10.13
2023-03-04T22:41:18.196Z,9.30
2023-03-04T22:43:49.803Z,11.07
2023-03-04T22:46:22.510Z,9.27
2023-03-04T22:48:54.155Z,9.27
2023-03-04T22:51:20.967Z,9.65
2023-03-04T22:53:48.969Z,9.82
2023-03-04T22:56:16.146Z,10.23
2023-03-04T22:58:44.352Z,9.00
2023-03-04T23:01:12.240Z,11.45
2023-03-04T23:03:40.394Z,11.05
2023-03-04T23:06:08.321Z,9.07
2023-03-04T23:08:37.386Z,9.88
2023-03-04T23:11:10.334Z,9.88
2023-03-04T23:13:37.980Z,10.45
2023-03-04T23:16:07.943Z,10.77
2023-03-04T23:18:39.275Z,10.73
2023-03-04T23:21:07.736Z,9.77
2023-03-04T23:23:34.454Z,9.77
2023-03-04T23:26:01.675Z,9.45
2023-03-04T23:28:28.485Z,11.75
2023-03-04T23:30:55.143Z,10.10
2023-03-04T23:33:21.593Z,9.68
2023-03-04T23:35:51.197Z,10.27
2023-03-04T23:38:17.597Z,10.85
2023-03-04T23:40:44.060Z,10.55
2023-03-04T23:43:10.548Z,9.73
2023-03-04T23:45:38.018Z,11.40
2023-03-04T23:48:04.788Z,11.43
2023-03-04T23:50:32.198Z,9.65
2023-03-04T23:52:58.713Z,9.73
2023-03-04T23:55:25.248Z,9.07
2023-03-04T23:57:54.066Z,10.38
